Time;durP1;ratioP1;P1;durP2;ratioP2;P2;SDS_P1;SDS_P2;PMS_P1;PMS_P2;Temp;Humidity;BMP_temperature;BMP_pressure;BME280_temperature;BME280_humidity;BME280_pressure;Samples;Min_cycle;Max_cycle;Signal;HPM_P1;HPM_P2
2023/05/29 00:00:27;;;;;;;;;;;;;;;7.75;76.10;99495.66;4896826;29;19955;-83
2023/05/29 00:02:54;;;;;;;;;;;;;;;7.87;75.24;99500.31;4897154;29;19970;-82
2023/05/29 00:05:21;;;;;;;;;;;;;;;7.85;74.98;99505.09;4896187;29;19931;-82
2023/05/29 00:07:48;;;;;;;;;;;;;;;7.83;74.97;99499.94;4896514;29;19927;-81
2023/05/29 00:10:16;;;;;;;;;;;;;;;7.67;75.05;99500.41;4896573;29;20452;-82
2023/05/29 00:12:43;;;;;;;;;;;;;;;7.49;75.33;99501.13;4896521;29;19966;-82
2023/05/29 00:15:10;;;;;;;;;;;;;;;7.37;75.92;99507.16;4896848;29;19927;-82
2023/05/29 00:17:39;;;;;;;;;;;;;;;7.45;76.04;99502.59;4896967;29;19927;-82
2023/05/29 00:20:09;;;;;;;;;;;;;;;7.62;75.50;99508.28;4896554;29;19932;-80
2023/05/29 00:22:39;;;;;;;;;;;;;;;7.74;74.71;99510.09;4896384;29;20414;-83
2023/05/29 00:25:06;;;;;;;;;;;;;;;7.83;74.22;99510.69;4896451;29;19937;-82
2023/05/29 00:27:33;;;;;;;;;;;;;;;7.91;73.92;99513.13;4896150;29;19971;-83
2023/05/29 00:30:01;;;;;;;;;;;;;;;7.92;73.76;99513.94;4879869;29;19927;-83
2023/05/29 00:32:29;;;;;;;;;;;;;;;7.93;73.46;99510.25;4895276;29;19928;-82
2023/05/29 00:34:56;;;;;;;;;;;;;;;7.89;73.18;99503.63;4895261;29;20021;-82
2023/05/29 00:37:23;;;;;;;;;;;;;;;7.87;73.57;99503.00;4896161;29;19933;-81
2023/05/29 00:39:50;;;;;;;;;;;;;;;7.87;73.51;99505.69;4894759;29;20308;-82
2023/05/29 00:42:17;;;;;;;;;;;;;;;7.84;73.48;99503.44;4894856;29;19928;-82
2023/05/29 00:44:43;;;;;;;;;;;;;;;7.78;73.64;99503.28;4894541;29;19927;-82
2023/05/29 00:47:10;;;;;;;;;;;;;;;7.70;73.87;99502.69;4896062;29;19934;-82
2023/05/29 00:49:37;;;;;;;;;;;;;;;7.58;74.04;99499.84;4895947;29;19934;-82
2023/05/29 00:52:06;;;;;;;;;;;;;;;7.51;74.30;99502.56;4895203;29;19935;-82
2023/05/29 00:54:33;;;;;;;;;;;;;;;7.42;74.71;99511.91;4879648;29;19970;-83
2023/05/29 00:57:01;;;;;;;;;;;;;;;7.32;75.00;99516.88;4883070;29;19979;-82
2023/05/29 00:59:29;;;;;;;;;;;;;;;7.25;75.35;99513.38;4899765;29;19966;-83
2023/05/29 01:01:57;;;;;;;;;;;;;;;7.18;75.55;99515.25;4898580;29;19933;-82
2023/05/29 01:04:25;;;;;;;;;;;;;;;7.12;75.87;99520.44;4898470;29;19927;-81
2023/05/29 01:06:52;;;;;;;;;;;;;;;7.08;76.09;99513.00;4898376;29;20406;-82
2023/05/29 01:09:19;;;;;;;;;;;;;;;7.08;75.97;99511.13;4900072;29;20022;-80
2023/05/29 01:12:04;;;;;;;;;;;;;;;7.11;76.03;99512.56;4899357;29;19967;-82
2023/05/29 01:14:37;;;;;;;;;;;;;;;7.02;76.14;99509.31;4898527;29;19927;-81
2023/05/29 01:17:11;;;;;;;;;;;;;;;7.02;76.11;99519.22;4900294;29;19979;-81
2023/05/29 01:19:48;;;;;;;;;;;;;;;6.99;76.36;99519.59;4882803;29;20049;-82
2023/05/29 01:22:24;;;;;;;;;;;;;;;7.02;76.32;99522.72;4899555;29;20022;-80
2023/05/29 01:24:57;;;;;;;;;;;;;;;6.99;76.50;99514.25;4898061;29;19928;-82
2023/05/29 01:30:49;;;;;;;;;;;;;;;6.99;76.25;99517.78;4897901;29;20037;-83
2023/05/29 01:33:16;;;;;;;;;;;;;;;6.97;76.44;99527.06;4882627;29;19935;-82
2023/05/29 01:35:43;;;;;;;;;;;;;;;6.94;76.49;99526.44;4882478;29;19979;-82
2023/05/29 01:38:10;;;;;;;;;;;;;;;6.92;76.47;99527.69;4898333;29;20443;-82
2023/05/29 01:40:37;;;;;;;;;;;;;;;6.87;76.60;99528.31;4897827;29;20366;-81
2023/05/29 01:43:04;;;;;;;;;;;;;;;6.78;76.73;99528.72;4882288;29;19931;-82
2023/05/29 01:45:31;;;;;;;;;;;;;;;6.74;77.07;99531.00;4897573;29;19927;-82
2023/05/29 01:47:58;;;;;;;;;;;;;;;6.71;77.12;99529.56;4913279;29;19934;-82
2023/05/29 01:50:27;;;;;;;;;;;;;;;6.73;77.52;99534.69;4898942;29;19974;-83
2023/05/29 01:52:54;;;;;;;;;;;;;;;6.78;77.46;99529.53;4881894;29;19933;-82
2023/05/29 01:55:21;;;;;;;;;;;;;;;6.81;77.51;99539.88;4898774;29;19927;-82
2023/05/29 01:57:48;;;;;;;;;;;;;;;6.82;77.37;99536.16;4898436;29;19983;-83
2023/05/29 02:00:16;;;;;;;;;;;;;;;6.83;77.51;99540.47;4882126;29;19970;-82
2023/05/29 02:02:43;;;;;;;;;;;;;;;6.89;77.25;99538.84;4897059;29;19927;-82
2023/05/29 02:05:10;;;;;;;;;;;;;;;6.91;77.05;99542.13;4897558;29;19983;-83
2023/05/29 02:07:37;;;;;;;;;;;;;;;6.98;76.81;99542.94;4881797;29;19934;-82
2023/05/29 02:10:04;;;;;;;;;;;;;;;7.01;76.38;99534.47;4897806;29;20369;-83
2023/05/29 02:12:31;;;;;;;;;;;;;;;7.02;76.26;99538.81;4898548;29;20022;-81
2023/05/29 02:14:58;;;;;;;;;;;;;;;7.07;76.49;99546.25;4881806;29;20025;-80
2023/05/29 02:17:26;;;;;;;;;;;;;;;7.09;76.45;99541.47;4897155;29;20031;-81
2023/05/29 02:19:53;;;;;;;;;;;;;;;7.14;76.86;99545.22;4913067;29;19975;-82
2023/05/29 02:22:20;;;;;;;;;;;;;;;7.18;77.11;99539.41;4897179;29;20364;-81
2023/05/29 02:24:47;;;;;;;;;;;;;;;7.23;77.45;99545.81;4896709;29;19975;-82
2023/05/29 02:27:14;;;;;;;;;;;;;;;7.26;77.11;99545.38;4898209;29;19927;-81
2023/05/29 02:29:41;;;;;;;;;;;;;;;7.32;77.16;99547.25;4896669;29;19927;-81
2023/05/29 02:32:07;;;;;;;;;;;;;;;7.37;77.26;99547.44;4897073;29;20020;-81
2023/05/29 02:34:34;;;;;;;;;;;;;;;7.45;76.96;99546.38;4896864;29;19928;-81
2023/05/29 02:37:02;;;;;;;;;;;;;;;7.53;76.74;99548.81;4898383;29;19934;-82
2023/05/29 02:39:30;;;;;;;;;;;;;;;7.64;76.43;99539.28;4898213;29;19930;-82
2023/05/29 02:41:56;;;;;;;;;;;;;;;7.71;76.15;99542.78;4898340;29;19935;-81
2023/05/29 02:44:23;;;;;;;;;;;;;;;7.77;75.95;99544.63;4898307;29;19931;-83
2023/05/29 02:46:50;;;;;;;;;;;;;;;7.84;75.95;99539.19;4897370;29;19935;-83
2023/05/29 02:49:19;;;;;;;;;;;;;;;7.92;75.74;99546.19;4898862;29;19982;-84
2023/05/29 02:51:46;;;;;;;;;;;;;;;8.00;75.54;99557.53;4898405;29;19938;-82
2023/05/29 02:54:13;;;;;;;;;;;;;;;8.09;75.13;99558.09;4899819;29;19983;-83
2023/05/29 02:56:40;;;;;;;;;;;;;;;8.18;74.94;99556.00;4899041;29;19927;-82
2023/05/29 02:59:07;;;;;;;;;;;;;;;8.32;74.74;99559.44;4889759;29;19928;-82
2023/05/29 03:01:34;;;;;;;;;;;;;;;8.41;74.34;99564.38;4884226;29;19982;-82
2023/05/29 03:04:01;;;;;;;;;;;;;;;8.51;74.15;99563.91;4879150;29;19928;-82
2023/05/29 03:06:29;;;;;;;;;;;;;;;8.63;73.78;99554.09;4893450;29;19927;-84
2023/05/29 03:08:59;;;;;;;;;;;;;;;8.75;73.60;99561.44;4882006;29;19969;-83
2023/05/29 03:11:26;;;;;;;;;;;;;;;8.87;73.25;99570.47;4887479;29;19939;-82
2023/05/29 03:13:53;;;;;;;;;;;;;;;8.98;72.96;99563.53;4893979;29;19928;-82
2023/05/29 03:16:20;;;;;;;;;;;;;;;9.08;72.83;99563.84;4887367;29;20050;-82
2023/05/29 03:18:48;;;;;;;;;;;;;;;9.17;72.48;99569.81;4885087;29;19927;-82
2023/05/29 03:21:21;;;;;;;;;;;;;;;9.24;72.23;99576.78;4910821;29;20294;-82
2023/05/29 03:23:48;;;;;;;;;;;;;;;9.32;72.06;99581.88;4878040;29;19927;-82
2023/05/29 03:26:15;;;;;;;;;;;;;;;9.42;71.68;99583.19;4886734;29;19975;-81
2023/05/29 03:28:43;;;;;;;;;;;;;;;9.51;71.47;99580.00;4908313;29;19978;-82
2023/05/29 03:31:10;;;;;;;;;;;;;;;9.63;71.15;99577.41;4877341;29;19935;-82
2023/05/29 03:33:37;;;;;;;;;;;;;;;9.74;71.02;99581.22;4878536;29;19978;-82
2023/05/29 03:36:39;;;;;;;;;;;;;;;9.84;70.68;99570.72;4876326;29;19939;-81
2023/05/29 03:39:07;;;;;;;;;;;;;;;9.94;70.48;99579.09;4876144;29;19927;-83
2023/05/29 03:41:37;;;;;;;;;;;;;;;10.05;70.25;99580.22;4859178;29;19927;-84
2023/05/29 03:44:05;;;;;;;;;;;;;;;10.15;70.14;99582.38;4876490;29;20009;-82
2023/05/29 03:46:32;;;;;;;;;;;;;;;10.26;69.56;99587.00;4827525;29;19977;-82
2023/05/29 03:48:59;;;;;;;;;;;;;;;10.37;69.29;99588.13;4882683;29;20035;-83
2023/05/29 03:51:26;;;;;;;;;;;;;;;10.51;68.45;99594.19;4853155;29;19932;-82
2023/05/29 03:53:56;;;;;;;;;;;;;;;10.64;68.16;99596.69;4841363;29;19991;-82
2023/05/29 03:56:23;;;;;;;;;;;;;;;10.74;67.99;99586.13;4841543;29;19927;-82
2023/05/29 03:58:52;;;;;;;;;;;;;;;10.87;67.58;99584.28;4841303;29;20390;-82
2023/05/29 04:01:22;;;;;;;;;;;;;;;11.00;66.46;99589.47;4843158;29;19928;-83
2023/05/29 04:03:49;;;;;;;;;;;;;;;11.14;65.26;99595.47;4869076;29;20033;-83
2023/05/29 04:06:16;;;;;;;;;;;;;;;11.27;65.34;99596.06;4875249;29;19931;-83
2023/05/29 04:08:43;;;;;;;;;;;;;;;11.39;64.83;99590.66;4875033;29;20045;-83
2023/05/29 04:11:11;;;;;;;;;;;;;;;11.53;62.76;99593.13;4888192;29;20029;-83
2023/05/29 04:13:38;;;;;;;;;;;;;;;11.66;62.59;99599.09;4878395;29;20022;-83
2023/05/29 04:16:06;;;;;;;;;;;;;;;11.77;62.26;99594.72;4877518;29;19975;-83
2023/05/29 04:18:33;;;;;;;;;;;;;;;11.87;60.89;99589.56;4875786;29;19935;-83
2023/05/29 04:21:00;;;;;;;;;;;;;;;12.00;60.22;99588.50;4887707;29;19934;-82
2023/05/29 04:23:27;;;;;;;;;;;;;;;12.11;59.48;99600.34;4895142;29;19982;-83
2023/05/29 04:25:54;;;;;;;;;;;;;;;12.22;59.16;99593.25;4892466;29;20042;-83
2023/05/29 04:28:26;;;;;;;;;;;;;;;12.29;58.65;99585.81;4888105;29;19927;-83
2023/05/29 04:30:56;;;;;;;;;;;;;;;12.39;58.04;99599.53;4901827;29;19931;-82
2023/05/29 04:33:24;;;;;;;;;;;;;;;12.53;58.08;99602.75;4894539;29;19927;-82
2023/05/29 04:35:52;;;;;;;;;;;;;;;12.60;57.27;99608.03;4894453;29;19927;-81
2023/05/29 04:38:24;;;;;;;;;;;;;;;12.69;56.41;99614.69;4895756;29;20431;-83
2023/05/29 04:40:57;;;;;;;;;;;;;;;12.77;56.15;99607.00;4894184;29;19934;-82
2023/05/29 04:43:28;;;;;;;;;;;;;;;12.88;55.62;99610.69;4879507;29;19927;-81
2023/05/29 04:46:07;;;;;;;;;;;;;;;12.99;55.40;99617.94;4894330;29;19927;-82
2023/05/29 04:48:40;;;;;;;;;;;;;;;13.08;55.12;99612.09;4900172;29;19931;-82
2023/05/29 04:51:10;;;;;;;;;;;;;;;13.19;54.75;99612.03;4913092;29;19927;-81
2023/05/29 04:53:39;;;;;;;;;;;;;;;13.30;54.44;99612.22;4876528;29;19928;-82
2023/05/29 04:56:09;;;;;;;;;;;;;;;13.42;54.13;99616.47;4860617;29;20506;-83
2023/05/29 04:58:36;;;;;;;;;;;;;;;13.54;53.50;99608.22;4878417;29;20629;-81
2023/05/29 05:01:03;;;;;;;;;;;;;;;13.66;53.05;99616.28;4901131;29;19935;-81
2023/05/29 05:03:33;;;;;;;;;;;;;;;13.79;52.37;99621.34;4904345;29;19927;-83
2023/05/29 05:06:03;;;;;;;;;;;;;;;13.88;50.67;99614.41;4913036;29;19973;-81
2023/05/29 05:08:32;;;;;;;;;;;;;;;13.99;50.65;99611.81;4913059;29;20422;-82
2023/05/29 05:11:00;;;;;;;;;;;;;;;14.10;49.56;99610.88;4880688;29;20417;-82
2023/05/29 05:13:27;;;;;;;;;;;;;;;14.20;48.68;99604.75;4895175;29;19927;-83
2023/05/29 05:15:54;;;;;;;;;;;;;;;14.30;48.13;99611.13;4877796;29;19927;-83
2023/05/29 05:21:07;;;;;;;;;;;;;;;14.54;47.74;99610.06;4887203;29;19928;-82
2023/05/29 05:23:54;;;;;;;;;;;;;;;14.65;47.32;99611.78;4878275;29;19981;-83
2023/05/29 05:26:28;;;;;;;;;;;;;;;14.82;46.58;99612.50;4875186;29;20118;-83
2023/05/29 05:28:55;;;;;;;;;;;;;;;14.98;45.38;99610.72;4884170;29;19927;-84
2023/05/29 05:31:26;;;;;;;;;;;;;;;15.04;45.15;99615.16;4890105;29;19927;-84
2023/05/29 05:34:11;;;;;;;;;;;;;;;15.16;43.41;99613.06;4888465;29;19975;-80
2023/05/29 05:36:59;;;;;;;;;;;;;;;15.22;41.24;99607.66;4889157;29;19934;-84
2023/05/29 05:39:26;;;;;;;;;;;;;;;15.27;40.55;99610.44;4895034;29;19931;-83
2023/05/29 05:41:53;;;;;;;;;;;;;;;15.33;38.97;99612.09;4887891;29;19995;-82
2023/05/29 05:44:56;;;;;;;;;;;;;;;15.46;38.69;99614.38;4855420;29;19938;-80
2023/05/29 05:47:23;;;;;;;;;;;;;;;15.54;39.00;99616.59;4849454;29;19951;-84
2023/05/29 05:49:51;;;;;;;;;;;;;;;15.63;38.52;99613.41;4868515;29;19944;-83
2023/05/29 05:52:25;;;;;;;;;;;;;;;15.70;37.33;99605.81;4859294;29;20055;-86
2023/05/29 05:54:53;;;;;;;;;;;;;;;15.73;37.15;99619.75;4872173;29;19928;-82
2023/05/29 05:57:20;;;;;;;;;;;;;;;15.76;37.06;99616.50;4859678;29;19927;-83
2023/05/29 05:59:47;;;;;;;;;;;;;;;15.81;38.16;99621.16;4858308;29;20034;-81
2023/05/29 06:02:15;;;;;;;;;;;;;;;15.86;38.98;99623.91;4836167;29;19928;-82
2023/05/29 06:04:43;;;;;;;;;;;;;;;15.97;38.62;99614.69;4853149;29;19928;-82
2023/05/29 06:07:10;;;;;;;;;;;;;;;16.19;39.01;99619.16;4846663;29;19928;-81
2023/05/29 06:09:37;;;;;;;;;;;;;;;16.23;38.35;99628.44;4858645;29;19932;-83
2023/05/29 06:12:07;;;;;;;;;;;;;;;16.22;37.77;99613.16;4871629;29;19984;-82
2023/05/29 06:14:38;;;;;;;;;;;;;;;16.28;38.09;99623.00;4841068;29;20023;-80
2023/05/29 06:17:05;;;;;;;;;;;;;;;16.43;37.36;99624.94;4874002;29;20089;-81
2023/05/29 06:19:32;;;;;;;;;;;;;;;16.41;35.11;99622.50;4879311;29;19928;-82
2023/05/29 06:22:01;;;;;;;;;;;;;;;16.38;33.93;99630.38;4896223;29;19989;-82
2023/05/29 06:24:30;;;;;;;;;;;;;;;16.36;34.49;99629.84;4895999;29;19931;-82
2023/05/29 06:26:59;;;;;;;;;;;;;;;16.57;35.18;99636.16;4896627;29;19992;-82
2023/05/29 06:29:26;;;;;;;;;;;;;;;16.72;34.80;99633.47;4895981;29;19928;-81
2023/05/29 06:31:53;;;;;;;;;;;;;;;16.61;33.02;99642.69;4887425;29;19927;-81
2023/05/29 06:34:20;;;;;;;;;;;;;;;16.47;32.51;99635.03;4888908;29;19931;-82
2023/05/29 06:36:47;;;;;;;;;;;;;;;16.44;31.68;99648.38;4892332;29;19931;-83
2023/05/29 06:39:15;;;;;;;;;;;;;;;16.49;31.38;99645.66;4896978;29;19934;-80
2023/05/29 06:41:42;;;;;;;;;;;;;;;16.57;32.03;99647.06;4856542;29;19928;-81
2023/05/29 06:44:15;;;;;;;;;;;;;;;16.57;30.68;99653.31;4890174;29;19927;-82
2023/05/29 06:46:42;;;;;;;;;;;;;;;16.55;31.29;99651.94;4873379;29;19927;-81
2023/05/29 06:49:10;;;;;;;;;;;;;;;16.60;31.33;99646.50;4880904;29;20602;-79
2023/05/29 06:51:37;;;;;;;;;;;;;;;16.66;32.02;99650.88;4896726;29;19988;-82
2023/05/29 06:54:22;;;;;;;;;;;;;;;16.80;31.90;99662.94;4892155;29;19928;-80
2023/05/29 06:56:49;;;;;;;;;;;;;;;16.84;31.78;99650.41;4891206;29;19927;-82
2023/05/29 06:59:35;;;;;;;;;;;;;;;16.85;31.38;99643.88;4885875;29;20376;-80
2023/05/29 07:02:02;;;;;;;;;;;;;;;16.80;31.43;99651.22;4861944;29;19927;-81
2023/05/29 07:04:29;;;;;;;;;;;;;;;16.88;31.72;99650.69;4896112;29;19928;-81
2023/05/29 07:06:57;;;;;;;;;;;;;;;16.89;31.70;99647.69;4889357;29;19939;-83
2023/05/29 07:09:43;;;;;;;;;;;;;;;16.94;31.89;99641.44;4893826;29;19932;-81
2023/05/29 07:12:11;;;;;;;;;;;;;;;16.92;31.78;99649.06;4905059;29;20315;-81
2023/05/29 07:14:38;;;;;;;;;;;;;;;17.01;32.24;99646.63;4888750;29;19950;-79
2023/05/29 07:17:06;;;;;;;;;;;;;;;17.05;31.85;99653.16;4877056;29;19975;-81
2023/05/29 07:19:33;;;;;;;;;;;;;;;17.19;32.30;99647.97;4892149;29;19934;-81
2023/05/29 07:24:48;;;;;;;;;;;;;;;17.52;31.56;99662.97;4879501;29;19946;-80
2023/05/29 07:27:16;;;;;;;;;;;;;;;17.41;31.86;99653.16;4895646;29;19934;-79
2023/05/29 07:29:43;;;;;;;;;;;;;;;17.43;32.20;99648.25;4893320;29;19928;-80
2023/05/29 07:32:11;;;;;;;;;;;;;;;17.60;32.39;99642.50;4878296;29;20023;-80
2023/05/29 07:34:39;;;;;;;;;;;;;;;17.63;31.53;99644.69;4888738;29;20282;-81
2023/05/29 07:37:09;;;;;;;;;;;;;;;17.62;32.11;99646.59;4882488;29;19990;-81
2023/05/29 07:39:38;;;;;;;;;;;;;;;17.74;31.39;99647.13;4915858;29;19927;-82
2023/05/29 07:42:21;;;;;;;;;;;;;;;17.94;31.45;99650.94;4895414;29;19934;-80
2023/05/29 07:44:49;;;;;;;;;;;;;;;18.09;30.46;99653.63;4895312;29;19975;-80
2023/05/29 07:47:17;;;;;;;;;;;;;;;17.84;30.26;99648.22;4893125;29;19981;-81
2023/05/29 07:49:50;;;;;;;;;;;;;;;17.95;30.48;99645.22;4864664;29;19954;-82
2023/05/29 07:52:18;;;;;;;;;;;;;;;17.93;29.84;99660.22;4888444;29;19982;-81
2023/05/29 07:54:45;;;;;;;;;;;;;;;18.06;29.72;99656.91;4882094;29;19962;-81
2023/05/29 07:57:13;;;;;;;;;;;;;;;18.11;29.29;99651.44;4876056;29;19927;-81
2023/05/29 07:59:42;;;;;;;;;;;;;;;18.31;28.71;99666.13;4864095;29;19927;-80
2023/05/29 08:02:11;;;;;;;;;;;;;;;18.06;29.31;99656.91;4876065;29;19991;-82
2023/05/29 08:05:08;;;;;;;;;;;;;;;18.36;29.63;99661.44;4876866;29;20015;-80
2023/05/29 08:07:36;;;;;;;;;;;;;;;18.73;29.59;99653.88;4876058;29;20387;-80
2023/05/29 08:10:05;;;;;;;;;;;;;;;18.93;29.23;99650.22;4877443;29;19927;-81
2023/05/29 08:12:34;;;;;;;;;;;;;;;18.85;29.21;99648.91;4870284;29;19931;-81
2023/05/29 08:15:02;;;;;;;;;;;;;;;19.16;29.42;99638.53;4876012;29;19928;-82
2023/05/29 08:17:49;;;;;;;;;;;;;;;19.84;29.78;99636.84;4879278;29;19932;-80
2023/05/29 08:20:18;;;;;;;;;;;;;;;20.30;29.21;99645.34;4888653;29;19931;-82
2023/05/29 08:22:45;;;;;;;;;;;;;;;20.07;28.73;99649.75;4890890;29;20240;-81
2023/05/29 08:25:12;;;;;;;;;;;;;;;19.75;27.95;99652.28;4887099;29;19998;-81
2023/05/29 08:27:39;;;;;;;;;;;;;;;19.49;28.00;99647.84;4889241;29;19970;-82
2023/05/29 08:30:07;;;;;;;;;;;;;;;19.32;28.03;99647.47;4896000;29;20331;-81
2023/05/29 08:32:34;;;;;;;;;;;;;;;19.22;28.25;99633.88;4876265;29;19928;-81
2023/05/29 08:35:01;;;;;;;;;;;;;;;19.27;28.67;99620.16;4878496;29;19942;-81
2023/05/29 08:37:31;;;;;;;;;;;;;;;19.85;28.16;99631.09;4886596;29;19928;-81
2023/05/29 08:39:57;;;;;;;;;;;;;;;20.38;27.88;99629.38;4877322;29;19928;-81
2023/05/29 08:42:27;;;;;;;;;;;;;;;20.29;26.70;99623.72;4877313;29;19928;-81
2023/05/29 08:44:57;;;;;;;;;;;;;;;20.00;26.97;99621.88;4876594;29;19934;-80
2023/05/29 08:47:25;;;;;;;;;;;;;;;20.36;26.56;99640.63;4876465;29;19927;-80
2023/05/29 08:49:53;;;;;;;;;;;;;;;20.28;26.40;99628.41;4876566;29;19944;-79
2023/05/29 08:52:22;;;;;;;;;;;;;;;20.51;26.48;99631.41;4876706;29;19928;-81
2023/05/29 08:54:49;;;;;;;;;;;;;;;20.26;26.80;99636.09;4876638;29;19931;-82
2023/05/29 08:57:17;;;;;;;;;;;;;;;20.12;27.35;99618.72;4876983;29;19934;-81
2023/05/29 08:59:44;;;;;;;;;;;;;;;20.76;26.87;99622.84;4875320;29;19931;-82
2023/05/29 09:02:11;;;;;;;;;;;;;;;21.52;26.60;99622.72;4890881;29;20026;-81
2023/05/29 09:04:39;;;;;;;;;;;;;;;22.04;25.54;99620.63;4895044;29;19934;-83
2023/05/29 09:07:08;;;;;;;;;;;;;;;22.42;25.04;99609.41;4893562;29;19928;-81
2023/05/29 09:09:35;;;;;;;;;;;;;;;22.37;25.01;99611.47;4895244;29;19931;-81
2023/05/29 09:12:03;;;;;;;;;;;;;;;22.67;24.83;99602.53;4894314;29;19970;-80
2023/05/29 09:14:37;;;;;;;;;;;;;;;22.87;24.29;99600.44;4894543;29;20014;-81
2023/05/29 09:17:05;;;;;;;;;;;;;;;23.07;24.29;99608.22;4897535;29;19931;-81
2023/05/29 09:19:32;;;;;;;;;;;;;;;22.99;24.35;99625.50;4899227;29;19931;-80
2023/05/29 09:22:07;;;;;;;;;;;;;;;23.58;24.23;99604.16;4899250;29;19962;-81
2023/05/29 09:24:36;;;;;;;;;;;;;;;23.90;23.82;99617.94;4882475;29;20060;-81
2023/05/29 09:27:07;;;;;;;;;;;;;;;23.26;24.09;99607.22;4867321;29;19927;-81
2023/05/29 09:29:41;;;;;;;;;;;;;;;23.39;24.30;99605.50;4867538;29;19933;-81
2023/05/29 09:32:31;;;;;;;;;;;;;;;23.53;24.46;99590.53;4895859;29;20021;-81
2023/05/29 09:35:01;;;;;;;;;;;;;;;24.71;23.81;99583.56;4885554;29;19927;-80
2023/05/29 09:37:30;;;;;;;;;;;;;;;25.39;23.10;99586.59;4908756;29;20017;-81
2023/05/29 09:40:15;;;;;;;;;;;;;;;25.76;22.69;99596.06;4898646;29;19932;-82
2023/05/29 09:42:42;;;;;;;;;;;;;;;25.23;22.55;99580.78;4898741;29;19928;-81
2023/05/29 09:48:01;;;;;;;;;;;;;;;22.53;25.23;99578.94;4913262;29;20295;-81
2023/05/29 09:50:28;;;;;;;;;;;;;;;23.66;23.93;99574.22;4895694;29;19931;-80
2023/05/29 09:52:58;;;;;;;;;;;;;;;23.66;23.80;99572.25;4912612;29;19927;-81
2023/05/29 09:55:26;;;;;;;;;;;;;;;23.69;23.40;99574.38;4879802;29;19928;-81
2023/05/29 09:57:53;;;;;;;;;;;;;;;24.20;23.16;99574.88;4899544;29;20313;-81
2023/05/29 10:00:21;;;;;;;;;;;;;;;24.97;22.03;99581.63;4917554;29;19958;-80
2023/05/29 10:02:48;;;;;;;;;;;;;;;25.18;22.41;99573.50;4899512;29;19931;-83
2023/05/29 10:05:15;;;;;;;;;;;;;;;25.24;22.49;99568.59;4897951;29;20295;-80
2023/05/29 10:08:02;;;;;;;;;;;;;;;24.81;22.14;99580.47;4907373;29;19934;-82
2023/05/29 10:10:29;;;;;;;;;;;;;;;24.22;21.72;99578.13;4917370;29;20117;-81
2023/05/29 10:12:56;;;;;;;;;;;;;;;24.26;22.14;99584.66;4915563;29;19974;-79
2023/05/29 10:15:23;;;;;;;;;;;;;;;25.13;21.31;99565.34;4916206;29;20017;-80
2023/05/29 10:17:53;;;;;;;;;;;;;;;25.32;21.06;99564.19;4900461;29;19927;-81
2023/05/29 10:20:20;;;;;;;;;;;;;;;26.64;20.16;99586.16;4895420;29;19962;-81
2023/05/29 10:22:48;;;;;;;;;;;;;;;27.19;19.65;99576.75;4896776;29;20034;-80
2023/05/29 10:25:17;;;;;;;;;;;;;;;27.75;19.87;99556.03;4896711;29;19933;-81
2023/05/29 10:27:45;;;;;;;;;;;;;;;28.55;18.90;99566.50;4896544;29;20013;-80
2023/05/29 10:30:29;;;;;;;;;;;;;;;29.10;18.63;99553.81;4896098;29;19933;-80
2023/05/29 10:33:15;;;;;;;;;;;;;;;29.06;17.48;99575.13;4885937;29;19968;-80
2023/05/29 10:35:45;;;;;;;;;;;;;;;26.84;19.53;99567.09;4887589;29;19932;-82
2023/05/29 10:38:13;;;;;;;;;;;;;;;26.41;20.19;99571.81;4879260;29;19934;-80
2023/05/29 10:40:40;;;;;;;;;;;;;;;26.83;19.21;99568.25;4878201;29;19966;-80
2023/05/29 10:43:10;;;;;;;;;;;;;;;27.18;19.35;99566.78;4889990;29;19935;-81
2023/05/29 10:45:37;;;;;;;;;;;;;;;27.07;19.22;99560.03;4893547;29;20851;-81
2023/05/29 10:48:10;;;;;;;;;;;;;;;28.33;19.13;99548.38;4902201;29;19931;-80
2023/05/29 10:50:41;;;;;;;;;;;;;;;29.09;18.41;99549.44;4894227;29;19932;-81
2023/05/29 10:53:12;;;;;;;;;;;;;;;28.67;18.38;99540.69;4886934;29;19939;-81
2023/05/29 10:55:39;;;;;;;;;;;;;;;28.13;18.12;99552.09;4896136;29;19927;-81
2023/05/29 10:58:09;;;;;;;;;;;;;;;26.54;18.78;99542.28;4890445;29;19999;-81
2023/05/29 11:00:41;;;;;;;;;;;;;;;26.47;19.61;99536.44;4878819;29;19928;-82
2023/05/29 11:03:08;;;;;;;;;;;;;;;26.78;19.23;99525.78;4866516;29;20358;-82
2023/05/29 11:05:36;;;;;;;;;;;;;;;26.96;19.05;99537.50;4878580;29;19928;-82
2023/05/29 11:08:04;;;;;;;;;;;;;;;27.16;18.27;99535.00;4881598;29;19927;-83
2023/05/29 11:10:50;;;;;;;;;;;;;;;26.63;19.40;99533.91;4887348;29;20356;-79
2023/05/29 11:13:31;;;;;;;;;;;;;;;27.36;18.80;99530.59;4878011;29;20339;-83
2023/05/29 11:16:12;;;;;;;;;;;;;;;26.79;19.08;99529.38;4879359;29;19999;-82
2023/05/29 11:18:44;;;;;;;;;;;;;;;26.50;18.74;99535.78;4893467;29;19927;-82
2023/05/29 11:21:34;;;;;;;;;;;;;;;26.61;19.56;99537.00;4892808;29;20437;-80
2023/05/29 11:24:06;;;;;;;;;;;;;;;25.96;19.27;99527.38;4896097;29;19963;-83
2023/05/29 11:26:53;;;;;;;;;;;;;;;27.36;19.11;99516.72;4883327;29;19934;-82
2023/05/29 11:29:21;;;;;;;;;;;;;;;27.94;18.38;99509.13;4861932;29;19927;-82
2023/05/29 11:32:09;;;;;;;;;;;;;;;28.21;18.09;99509.56;4887435;29;19927;-82
2023/05/29 11:34:38;;;;;;;;;;;;;;;28.56;18.03;99509.81;4896718;29;20347;-82
2023/05/29 11:37:06;;;;;;;;;;;;;;;28.66;18.08;99509.34;4896803;29;19934;-82
2023/05/29 11:39:39;;;;;;;;;;;;;;;28.89;18.01;99508.75;4877647;29;19955;-82
2023/05/29 11:42:06;;;;;;;;;;;;;;;29.00;17.63;99509.06;4887022;29;19928;-82
2023/05/29 11:44:34;;;;;;;;;;;;;;;29.14;17.97;99517.78;4896560;29;20302;-81
2023/05/29 11:47:03;;;;;;;;;;;;;;;29.25;17.56;99501.41;4864376;29;19935;-81
2023/05/29 11:49:32;;;;;;;;;;;;;;;28.90;17.92;99499.25;4879756;29;19927;-81
2023/05/29 11:52:07;;;;;;;;;;;;;;;29.35;17.56;99498.09;4889000;29;20038;-82
2023/05/29 11:54:46;;;;;;;;;;;;;;;29.60;17.08;99490.38;4876331;29;19974;-82
2023/05/29 11:57:18;;;;;;;;;;;;;;;29.79;17.41;99489.63;4877858;29;20592;-82
2023/05/29 11:59:46;;;;;;;;;;;;;;;29.53;17.38;99467.94;4877631;29;19983;-82
2023/05/29 12:02:14;;;;;;;;;;;;;;;29.25;17.21;99496.66;4880196;29;19927;-83
2023/05/29 12:04:41;;;;;;;;;;;;;;;29.56;17.44;99495.81;4885015;29;19931;-83
2023/05/29 12:07:20;;;;;;;;;;;;;;;30.34;17.06;99495.25;4883741;29;19950;-82
2023/05/29 12:10:05;;;;;;;;;;;;;;;30.43;17.11;99490.25;4877312;29;20033;-82
2023/05/29 12:12:34;;;;;;;;;;;;;;;30.40;16.93;99483.44;4889697;29;20461;-82
2023/05/29 12:15:05;;;;;;;;;;;;;;;30.42;16.79;99488.66;4885640;29;20022;-82
2023/05/29 12:17:32;;;;;;;;;;;;;;;29.83;17.02;99481.38;4895908;29;19931;-83
2023/05/29 12:19:59;;;;;;;;;;;;;;;30.37;16.59;99486.16;4894806;29;19927;-82
2023/05/29 12:22:36;;;;;;;;;;;;;;;30.39;16.97;99489.41;4879671;29;19953;-81
2023/05/29 12:25:05;;;;;;;;;;;;;;;29.58;17.35;99493.50;4894234;29;19936;-82
2023/05/29 12:27:32;;;;;;;;;;;;;;;29.31;17.65;99488.84;4879009;29;19935;-82
2023/05/29 12:30:18;;;;;;;;;;;;;;;29.35;17.97;99475.84;4894663;29;19927;-81
2023/05/29 12:33:28;;;;;;;;;;;;;;;30.45;17.52;99479.56;4895605;29;19927;-81
2023/05/29 12:36:01;;;;;;;;;;;;;;;31.93;16.41;99476.25;4894454;29;19928;-82
2023/05/29 12:38:28;;;;;;;;;;;;;;;32.49;15.89;99463.44;4893480;29;19927;-80
2023/05/29 12:40:55;;;;;;;;;;;;;;;33.17;15.89;99461.38;4887917;29;19935;-82
2023/05/29 12:43:22;;;;;;;;;;;;;;;32.97;15.39;99459.97;4858714;29;19928;-82
2023/05/29 12:45:59;;;;;;;;;;;;;;;32.66;15.87;99450.84;4888882;29;19938;-81
2023/05/29 12:48:26;;;;;;;;;;;;;;;33.49;15.68;99460.03;4895259;29;20025;-84
2023/05/29 12:50:55;;;;;;;;;;;;;;;33.99;15.17;99461.19;4900133;29;20483;-80
2023/05/29 12:53:21;;;;;;;;;;;;;;;34.70;14.59;99465.53;4891600;29;19927;-81
2023/05/29 12:55:48;;;;;;;;;;;;;;;34.21;14.46;99464.09;4895720;29;20090;-82
2023/05/29 12:58:15;;;;;;;;;;;;;;;32.92;15.22;99463.13;4911837;29;20457;-82
2023/05/29 13:00:43;;;;;;;;;;;;;;;33.54;14.90;99459.66;4911397;29;19927;-82
2023/05/29 13:03:12;;;;;;;;;;;;;;;34.15;14.45;99455.28;4903894;29;20637;-82
2023/05/29 13:05:40;;;;;;;;;;;;;;;33.94;14.49;99464.34;4893042;29;20494;-81
2023/05/29 13:08:07;;;;;;;;;;;;;;;32.80;14.95;99467.78;4893119;29;19983;-81
2023/05/29 13:10:35;;;;;;;;;;;;;;;32.17;15.60;99474.97;4892634;29;19955;-81
2023/05/29 13:13:02;;;;;;;;;;;;;;;31.51;15.66;99471.59;4893889;29;20387;-83
2023/05/29 13:15:29;;;;;;;;;;;;;;;30.86;16.16;99458.50;4895114;29;19999;-81